• Join FlightAware (Why Join?)
  • Login
  • US Flag 
07:08PM EST


 

Airport Tracker/Info


-or-


 

Live Flight TrackerFlight Track Log ✈ N357FE ✈ 15-Apr-2013 ✈ CYMX - KMEM

Flight Track Log - Related Links

Times and Time Zones

All times are in EDT time to prevent confusion due to time zone crossing. See the N357FE flight status page for this flight to view local times or setup timezone preferences in your user account.

Time Position Orientation Groundspeed Altitude Reporting Facility
EDT Latitude Longitude Course Direction KTS MPH feet Rate Location/Type
09:50PM 45.6920 -73.9920 40° Northeast 145 167 900  Level FlightAware
09:50PM 45.7040 -73.9780 39° Northeast 178 205 1,200 1,200 Climbing FlightAware
09:51PM 45.7240 -73.9550 39° Northeast 214 246 1,900 1,680 Climbing FlightAware
09:51PM 45.7400 -73.9340 42° Northeast 228 262 2,500 1,800 Climbing FlightAware
09:51PM 45.7430 -73.9240 67° East 230 265 2,800 1,620 Climbing FlightAware
09:52PM 45.7360 -73.8780 102° East 242 278 3,600 1,920 Climbing FlightAware
09:52PM 45.7260 -73.8670 142° Southeast 244 281 4,100 2,700 Climbing FlightAware
09:53PM 45.6950 -73.8440 153° Southeast 257 296 5,400 2,400 Climbing FlightAware
09:53PM 45.6770 -73.8390 169° South 263 303 5,900 2,760 Climbing FlightAware
09:53PM 45.6600 -73.8410 185° South 255 293 6,800 3,060 Climbing FlightAware
09:54PM 45.6240 -73.8520 192° South 262 302 8,200 2,700 Climbing FlightAware
09:54PM 45.5940 -73.8610 192° South 267 307 9,300 1,860 Climbing FlightAware
09:55PM 45.5370 -73.8800 193° South 310 357 10,400 1,020 Climbing FlightAware
09:55PM 45.4770 -73.9000 193° South 360 414 10,800 1,380 Climbing FlightAware
09:56PM 45.4100 -73.9220 193° South 377 434 12,300 2,220 Climbing FlightAware
09:57PM 45.3320 -73.9480 193° South 389 448 14,000 2,160 Climbing FlightAware
09:57PM 45.2590 -73.9710 193° South 402 463 15,400 1,920 Climbing FlightAware
09:58PM 45.1780 -73.9970 193° South 413 475 16,800 1,680 Climbing FlightAware
09:59PM 45.1020 -74.0210 193° South 426 490 17,800 1,680 Climbing FlightAware
10:00PM 45.0240 -74.0490 194° South 430 495 19,100 2,160 Climbing FlightAware
10:00PM 44.9530 -74.1190 215° Southwest 416 479 20,900 2,040 Climbing FlightAware
10:01PM 44.8940 -74.1900 220° Southwest 422 486 22,000 1,380 Climbing FlightAware
10:02PM 44.8320 -74.2640 220° Southwest 434 499 22,800 1,020 Climbing FlightAware
10:02PM 44.7700 -74.3390 221° Southwest 447 514 23,400 1,080 Climbing FlightAware
10:03PM 44.7000 -74.4230 220° Southwest 455 524 24,400 1,260 Climbing FlightAware
10:04PM 44.6270 -74.5100 220° Southwest 460 529 25,300 1,380 Climbing FlightAware
10:04PM 44.5690 -74.5980 227° Southwest 450 518 26,400 1,500 Climbing FlightAware
10:05PM 44.5270 -74.6980 240° Southwest 448 516 27,300 1,260 Climbing FlightAware
10:06PM 44.4830 -74.8100 241° Southwest 449 517 28,200 1,500 Climbing FlightAware
10:07PM 44.4420 -74.9100 240° Southwest 439 505 29,500 2,100 Climbing FlightAware
10:07PM 44.3970 -75.0220 241° Southwest 419 482 31,200 1,620 Climbing FlightAware
10:08PM 44.3590 -75.1150 240° Southwest 421 484 31,800 900 Climbing FlightAware
10:09PM 44.3200 -75.2100 240° Southwest 424 488 32,400 840 Climbing FlightAware
10:09PM 44.2770 -75.3140 240° Southwest 425 489 33,000 900 Climbing FlightAware
10:10PM 44.2400 -75.4050 240° Southwest 422 486 33,700 960 Climbing FlightAware
10:11PM 44.1820 -75.5430 240° Southwest 418 481 34,600 900 Climbing FlightAware
10:12PM 44.1430 -75.6410 241° Southwest 416 479 35,200 720 Climbing FlightAware
10:13PM 44.0920 -75.7610 239° Southwest 415 478 35,800 480 Climbing FlightAware
10:13PM 44.0570 -75.8460 240° Southwest 410 472 36,000 120 Climbing FlightAware
10:14PM 44.0183 -75.9453 240° Southwest 424 488 36,000  Level Boston Center
10:20PM 43.6920 -76.7030 240° Southwest 409 471 36,000  Level FlightAware
10:20PM 43.6480 -76.8060 239° Southwest 408 470 36,000  Level FlightAware
10:21PM 43.6090 -76.8960 239° Southwest 408 470 36,000  Level FlightAware
10:22PM 43.5700 -76.9850 239° Southwest 409 471 36,000  Level FlightAware
10:22PM 43.5270 -77.0840 239° Southwest 410 472 36,000  Level FlightAware
10:23PM 43.4880 -77.1730 239° Southwest 411 473 36,000  Level FlightAware
10:24PM 43.4480 -77.2650 239° Southwest 411 473 36,000  Level FlightAware
10:25PM 43.4050 -77.3630 239° Southwest 411 473 36,000  Level FlightAware
10:25PM 43.3640 -77.4550 239° Southwest 410 472 36,000  Level FlightAware
10:26PM 43.3250 -77.5440 239° Southwest 410 472 36,000  Level FlightAware
10:27PM 43.2800 -77.6440 238° Southwest 410 472 36,000  Level FlightAware
10:27PM 43.2350 -77.7440 238° Southwest 410 472 36,000  Level FlightAware
10:28PM 43.1960 -77.8300 238° Southwest 410 472 36,000  Level FlightAware
10:29PM 43.1580 -77.9150 239° Southwest 410 472 36,000  Level FlightAware
10:29PM 43.1110 -78.0200 239° Southwest 409 471 36,000  Level FlightAware
10:30PM 43.0720 -78.1080 239° Southwest 409 471 36,000  Level FlightAware
10:31PM 43.0320 -78.1940 238° Southwest 410 472 36,000  Level FlightAware
10:32PM 42.9880 -78.2930 239° Southwest 406 467 36,000  Level FlightAware
10:32PM 42.9470 -78.3820 238° Southwest 406 467 36,000  Level FlightAware
10:33PM 42.9030 -78.4780 238° Southwest 407 468 36,000  Level FlightAware
10:34PM 42.8620 -78.5670 238° Southwest 411 473 36,000 60 Level FlightAware
10:34PM 42.8220 -78.6550 238° Southwest 408 470 36,100  Climbing FlightAware
10:35PM 42.7770 -78.7530 238° Southwest 408 470 36,000 -120 Descending FlightAware
10:36PM 42.7370 -78.8400 238° Southwest 408 470 36,000  Level FlightAware
10:36PM 42.6910 -78.9370 237° Southwest 408 470 36,000  Level FlightAware
10:37PM 42.6520 -79.0220 238° Southwest 410 472 36,000  Level FlightAware
10:38PM 42.6090 -79.1110 237° Southwest 412 474 36,000  Level FlightAware
10:39PM 42.5650 -79.2070 238° Southwest 413 475 36,000  Level FlightAware
10:39PM 42.5230 -79.2940 237° Southwest 413 475 36,000  Level FlightAware
10:40PM 42.4810 -79.3840 238° Southwest 414 476 36,000  Level FlightAware
10:41PM 42.4360 -79.4800 238° Southwest 412 474 36,000  Level FlightAware
10:41PM 42.3940 -79.5690 237° Southwest 411 473 36,000  Level FlightAware
10:42PM 42.3500 -79.6620 237° Southwest 411 473 36,000  Level FlightAware
10:43PM 42.3060 -79.7520 237° Southwest 410 472 36,000  Level FlightAware
10:43PM 42.2640 -79.8380 237° Southwest 409 471 36,000  Level FlightAware
10:44PM 42.2180 -79.9340 237° Southwest 408 470 36,000  Level FlightAware
10:45PM 42.1780 -80.0180 237° Southwest 409 471 36,000  Level FlightAware
10:46PM 42.1310 -80.1170 237° Southwest 412 474 36,000  Level FlightAware
10:46PM 42.0890 -80.2030 237° Southwest 413 475 36,000  Level FlightAware
10:47PM 42.0470 -80.2890 237° Southwest 414 476 36,000  Level FlightAware
10:48PM 42.0000 -80.3860 237° Southwest 415 478 36,000  Level FlightAware
10:48PM 41.9600 -80.4680 237° Southwest 416 479 36,000  Level FlightAware
10:49PM 41.9100 -80.5690 236° Southwest 418 481 36,000  Level FlightAware
10:50PM 41.8680 -80.6530 236° Southwest 417 480 36,000  Level FlightAware
10:50PM 41.8260 -80.7400 237° Southwest 419 482 36,000  Level FlightAware
10:51PM 41.7770 -80.8370 236° Southwest 419 482 36,000 60 Level FlightAware
10:52PM 41.7440 -80.9040 237° Southwest 419 482 36,100  Climbing FlightAware
10:53PM 41.6790 -81.0350 236° Southwest 413 475 36,000 -120 Descending FlightAware
10:53PM 41.6360 -81.1220 237° Southwest 411 473 36,000  Level FlightAware
10:54PM 41.5940 -81.2040 236° Southwest 409 471 36,000  Level FlightAware
10:55PM 41.5480 -81.2960 236° Southwest 407 468 36,000  Level FlightAware
10:55PM 41.5060 -81.3790 236° Southwest 408 470 36,000  Level FlightAware
10:56PM 41.4570 -81.4760 236° Southwest 410 472 36,000  Level FlightAware
10:57PM 41.4150 -81.5600 236° Southwest 411 473 36,000  Level FlightAware
10:57PM 41.3680 -81.6520 236° Southwest 411 473 36,000  Level FlightAware
10:58PM 41.3250 -81.7350 235° Southwest 411 473 36,000  Level FlightAware
10:59PM 41.2820 -81.8190 236° Southwest 411 473 36,000  Level FlightAware
11:00PM 41.2330 -81.9150 236° Southwest 412 474 36,000  Level FlightAware
11:00PM 41.1890 -82.0010 236° Southwest 413 475 36,000  Level FlightAware
11:01PM 41.1470 -82.0800 235° Southwest 413 475 36,000  Level FlightAware
11:02PM 41.0970 -82.1770 236° Southwest 413 475 36,000  Level FlightAware
11:02PM 41.0550 -82.2580 236° Southwest 412 474 36,000  Level FlightAware
11:03PM 41.0120 -82.3410 236° Southwest 412 474 36,000  Level FlightAware
11:04PM 40.9630 -82.4370 236° Southwest 412 474 36,000  Level FlightAware
11:04PM 40.9240 -82.5090 234° Southwest 413 475 36,000  Level FlightAware
11:05PM 40.8740 -82.6040 235° Southwest 412 474 36,000  Level FlightAware
11:06PM 40.8280 -82.6930 236° Southwest 411 473 36,000  Level FlightAware
11:07PM 40.7770 -82.7900 235° Southwest 411 473 36,000  Level FlightAware
11:07PM 40.7340 -82.8700 235° Southwest 410 472 36,000  Level FlightAware
11:08PM 40.6940 -82.9460 235° Southwest 412 474 36,000  Level FlightAware
11:09PM 40.6420 -83.0430 235° Southwest 411 473 36,000  Level FlightAware
11:09PM 40.5980 -83.1250 235° Southwest 413 475 36,000  Level FlightAware
11:10PM 40.5490 -83.2190 236° Southwest 413 475 36,000  Level FlightAware
11:11PM 40.5040 -83.3010 234° Southwest 413 475 36,000  Level FlightAware
11:11PM 40.4600 -83.3830 235° Southwest 414 476 36,000  Level FlightAware
11:12PM 40.4100 -83.4760 235° Southwest 415 478 36,000  Level FlightAware
11:13PM 40.3650 -83.5600 235° Southwest 415 478 36,000  Level FlightAware
11:14PM 40.3150 -83.6520 235° Southwest 414 476 36,000  Level FlightAware
11:14PM 40.2700 -83.7340 234° Southwest 415 478 36,000  Level FlightAware
11:15PM 40.2320 -83.8040 235° Southwest 417 480 36,000  Level FlightAware
11:16PM 40.1760 -83.9050 234° Southwest 419 482 36,000  Level FlightAware
11:16PM 40.1290 -83.9920 235° Southwest 420 483 36,000  Level FlightAware
11:17PM 40.0780 -84.0820 233° Southwest 420 483 36,000  Level FlightAware
11:18PM 40.0350 -84.1630 235° Southwest 420 483 36,000 60 Level FlightAware
11:18PM 39.9960 -84.2330 234° Southwest 421 484 36,100  Climbing FlightAware
11:19PM 39.9410 -84.3320 234° Southwest 422 486 36,000 -120 Descending FlightAware
11:20PM 39.8930 -84.4180 234° Southwest 422 486 36,000  Level FlightAware
11:21PM 39.8420 -84.5110 234° Southwest 421 484 36,000  Level FlightAware
11:21PM 39.8050 -84.5760 233° Southwest 419 482 36,000  Level FlightAware
11:22PM 39.7430 -84.6860 234° Southwest 419 482 36,000  Level FlightAware
11:23PM 39.7030 -84.7540 233° Southwest 419 482 36,000  Level FlightAware
11:24PM 39.6350 -84.8760 234° Southwest 417 480 36,000  Level FlightAware
11:24PM 39.5930 -84.9530 235° Southwest 414 476 36,000  Level FlightAware
11:25PM 39.5400 -85.0450 233° Southwest 414 476 36,000  Level FlightAware
11:26PM 39.4920 -85.1290 233° Southwest 413 475 36,000  Level FlightAware
11:26PM 39.4480 -85.2060 234° Southwest 412 474 36,000  Level FlightAware
11:27PM 39.4010 -85.2880 233° Southwest 413 475 36,000  Level FlightAware
11:28PM 39.3520 -85.3730 233° Southwest 415 478 36,000  Level FlightAware
11:28PM 39.3040 -85.4590 234° Southwest 416 479 36,000  Level FlightAware
11:29PM 39.2530 -85.5470 233° Southwest 415 478 36,000  Level FlightAware
11:30PM 39.2060 -85.6280 233° Southwest 415 478 36,000  Level FlightAware
11:31PM 39.1540 -85.7170 233° Southwest 415 478 36,000  Level FlightAware
11:31PM 39.1070 -85.7960 233° Southwest 414 476 36,000  Level FlightAware
11:32PM 39.0590 -85.8810 234° Southwest 414 476 36,000  Level FlightAware
11:33PM 39.0110 -85.9620 233° Southwest 413 475 36,000  Level FlightAware
11:33PM 38.9590 -86.0500 233° Southwest 412 474 36,000  Level FlightAware
11:34PM 38.9120 -86.1320 234° Southwest 412 474 36,000  Level FlightAware
11:35PM 38.8700 -86.2030 233° Southwest 412 474 36,000  Level FlightAware
11:35PM 38.8160 -86.2940 233° Southwest 411 473 36,000  Level FlightAware
11:36PM 38.7670 -86.3780 233° Southwest 410 472 36,000  Level FlightAware
11:37PM 38.7180 -86.4610 233° Southwest 411 473 36,000  Level FlightAware
11:38PM 38.6710 -86.5380 232° Southwest 410 472 36,000  Level FlightAware
11:38PM 38.6200 -86.6250 233° Southwest 411 473 36,000  Level FlightAware
11:39PM 38.5740 -86.7010 232° Southwest 411 473 36,000  Level FlightAware
11:40PM 38.5310 -86.7720 232° Southwest 411 473 36,000  Level FlightAware
11:40PM 38.4760 -86.8640 233° Southwest 410 472 36,000  Level FlightAware
11:41PM 38.4290 -86.9410 232° Southwest 410 472 36,000  Level FlightAware
11:42PM 38.3760 -87.0310 233° Southwest 410 472 36,000  Level FlightAware
11:42PM 38.3290 -87.1080 232° Southwest 411 473 36,000  Level FlightAware
11:43PM 38.2780 -87.1930 233° Southwest 414 476 36,000  Level FlightAware
11:44PM 38.2360 -87.2600 231° Southwest 416 479 36,000 60 Level FlightAware
11:45PM 38.1850 -87.3450 233° Southwest 416 479 36,100  Climbing FlightAware
11:45PM 38.1290 -87.4360 232° Southwest 417 480 36,000 -120 Descending FlightAware
11:46PM 38.0830 -87.5120 232° Southwest 419 482 36,000  Level FlightAware
11:47PM 38.0340 -87.5910 232° Southwest 420 483 36,000 60 Level FlightAware
11:47PM 37.9810 -87.6770 232° Southwest 421 484 36,100 60 Climbing FlightAware
11:48PM 37.9310 -87.7470 228° Southwest 425 489 36,100 -120 Level FlightAware
11:49PM 37.8630 -87.8020 213° Southwest 434 499 36,000 -120 Descending FlightAware
11:49PM 37.7810 -87.8520 206° Southwest 432 497 36,000  Level FlightAware
11:50PM 37.7000 -87.9020 206° Southwest 431 496 36,000  Level FlightAware
11:51PM 37.6270 -87.9470 206° Southwest 431 496 36,000  Level FlightAware
11:52PM 37.5550 -87.9910 206° Southwest 429 494 36,000  Level FlightAware
11:52PM 37.4840 -88.0330 205° Southwest 430 495 36,000  Level FlightAware
11:53PM 37.4010 -88.0830 206° Southwest 430 495 36,000  Level FlightAware
11:54PM 37.3440 -88.1190 207° Southwest 429 494 36,000 -300 Level FlightAware
11:54PM 37.2490 -88.1750 205° Southwest 429 494 35,600 -540 Descending FlightAware
11:55PM 37.1880 -88.2130 206° Southwest 432 497 35,300 -480 Descending FlightAware
11:56PM 37.1180 -88.2540 205° Southwest 432 497 35,000 -240 Descending FlightAware
11:56PM 37.0340 -88.3040 205° Southwest 432 497 35,000  Level FlightAware
11:57PM 36.9630 -88.3480 206° Southwest 432 497 35,000  Level FlightAware
11:58PM 36.8700 -88.4020 205° Southwest 431 496 35,000  Level FlightAware
11:59PM 36.7970 -88.4460 206° Southwest 428 493 35,000 -240 Level FlightAware
11:59PM 36.7190 -88.4920 205° Southwest 426 490 34,700 -600 Descending FlightAware
12:00AM 36.6480 -88.5340 205° Southwest 423 487 34,200 -900 Descending FlightAware
12:01AM 36.5660 -88.5820 205° Southwest 419 482 33,500 -900 Descending FlightAware
12:01AM 36.4990 -88.6230 206° Southwest 420 483 33,000 -480 Descending FlightAware
12:02AM 36.4400 -88.6570 205° Southwest 419 482 32,900 -120 Descending FlightAware
12:03AM 36.3650 -88.7010 205° Southwest 419 482 32,900  Level FlightAware
12:03AM 36.3060 -88.7350 205° Southwest 419 482 32,900  Level FlightAware
12:04AM 36.2460 -88.7700 205° Southwest 419 482 32,900  Level FlightAware
12:05AM 36.1860 -88.8040 205° Southwest 419 482 32,900  Level FlightAware
12:05AM 36.1260 -88.8390 205° Southwest 419 482 32,900  Level FlightAware
12:06AM 36.0520 -88.8820 205° Southwest 419 482 32,900  Level FlightAware
12:07AM 35.9920 -88.9160 205° Southwest 419 482 32,900  Level FlightAware
12:08AM 35.9320 -88.9510 205° Southwest 419 482 32,900  Level FlightAware
12:08AM 35.8730 -88.9850 205° Southwest 419 482 32,900  Level FlightAware
12:09AM 35.8130 -89.0190 205° Southwest 419 482 32,900  Level FlightAware
12:10AM 35.7380 -89.0620 205° Southwest 419 482 32,900  Level FlightAware
12:10AM 35.6780 -89.0970 205° Southwest 419 482 32,900  Level FlightAware
12:11AM 35.6190 -89.1310 205° Southwest 419 482 32,900 -23,580 Level FlightAware
12:11AM 35.5833 -89.2833 205° Southwest 351 404 11,300 -31,920 Descending KMEM
12:12AM 35.5703 -89.3003 227° Southwest 356 410 11,100 -780 Descending Memphis Center
12:13AM 35.5081 -89.3700 222° Southwest 328 377 10,200 -840 Descending Memphis Center
12:14AM 35.4817 -89.4519 248° West 283 326 9,500 -900 Descending Memphis Center
12:15AM 35.4553 -89.5339 248° West 263 303 8,500 -960 Descending Memphis Center
12:16AM 35.4286 -89.6081 246° West 247 284 7,600 -840 Descending Memphis Center
12:17AM 35.4061 -89.6844 250° West 247 284 6,900 -960 Descending Memphis Center
12:18AM 35.3814 -89.7586 248° West 223 257 5,700 -1,140 Descending Memphis Center
12:19AM 35.3567 -89.8225 245° Southwest 211 243 4,700 -960 Descending Memphis Center
12:20AM 35.3361 -89.8836 248° West 211 243 3,800 -960 Descending Memphis Center
12:20AM 35.3167 -89.9167 234° Southwest 195 224 3,200 -480 Descending KMEM
12:21AM 35.2833 -89.9500 219° Southwest 142 163 3,000 -120 Descending KMEM
12:22AM 35.2500 -89.9667 202° Southwest 118 136 3,000  Level KMEM
12:23AM 35.2167 -89.9667 180° South 122 140 3,000  Level KMEM
12:24AM 35.1833 -89.9667 180° South 124 143 3,000 -360 Level KMEM
12:25AM 35.1500 -89.9667 180° South 126 145 2,300 -720 Descending KMEM
12:26AM 35.1167 -89.9667 180° South 123 142 1,600 -600 Descending KMEM
12:27AM 35.0833 -89.9667 180° South 112 129 1,100 -540 Descending KMEM
12:29AM 35.0424 -89.9767 180° South  Level Estimated
12:36AM 35.0424 -89.9767 345° North  Level Estimated
12:37AM 35.0424 -89.9767 345° North  Level Estimated
12:38AM 35.0424 -89.9767 345° North  Level Estimated
12:39AM 35.0424 -89.9767 345° North  Level Estimated
12:40AM 35.0424 -89.9767 345° North  Level Estimated
12:41AM 35.0424 -89.9767 345° North  Level Estimated
12:42AM 35.0424 -89.9767 345° North  Level Estimated
12:43AM 35.0424 -89.9767 345° North  Level Estimated
12:44AM 35.0424 -89.9767 345° North  Level Estimated
12:45AM 35.0424 -89.9767 345° North  Level Estimated
12:46AM 35.0424 -89.9767 345° North  Level Estimated
12:47AM 35.0424 -89.9767 345° North  Level Estimated
12:48AM 35.0424 -89.9767 345° North  Level Estimated